KAND/AND METAR and TAF weather

Enter ICAO airport designator
Station Type Date Time Source
KAND METAR 2021/02/25 01:56 UTC NOAA

KAND 250156Z AUTO 21003KT 10SM CLR 15/00 A3005 RMK AO2 SLP173 T01500000


Station Type Date Time Source
KAND Decoded METAR 2021/02/25 01:56 UTC NOAA

ANDERSON COUNTY AIRPORT, SC, United States (KAND) 34-30N 82-43W 239M
Feb 24, 2021 - 08:56 PM EST / 2021.02.25 0156 UTC
Wind: from the SSW (210 degrees) at 3 MPH (3 KT):0
Visibility: 10 mile(s):0
Sky conditions: clear
Temperature: 59.0 F (15.0 C)
Dew Point: 32.0 F (0.0 C)
Relative Humidity: 35%
Pressure (altimeter): 30.05 in. Hg (1017 hPa)
ob: KAND 250156Z AUTO 21003KT 10SM CLR 15/00 A3005 RMK AO2 SLP173 T01500000
cycle: 2

Station Type Date Time Source
KAND TAF 2021/02/24 18:33 UTC NOAA

TAF KAND 241730Z 2418/2518 23009G16KT P6SM SKC
FM250100 24006KT P6SM SKC
FM251000 26004KT P6SM FEW060
FM251300 VRB03KT P6SM FEW060
FM251700 03003KT P6SM FEW080

Example: see airport list